Hauptseite
METAR-TAF:

METAR-TAF

Flughäfen :

Hassi Messaoud, Algerien

Breite: 31-40N, Länge: 006-09E, Höhe: 142 m

Beobachtung

Neuester Wetterbericht von vor 22 Minuten, um 07:00 UTC
Wind 9 kt aus Nordwest
Temperatur 11°C
Luftfeuchtigkeit 76%
Luftdruck 1021 hPa
Sichtweite: 8000 m

METAR: DAUH 090700Z 31009KT 8000 NSC 11/07 Q1021

Zeit: 08:22 (07:22 UTC)

Prognose

Neuester Wetterbericht von vor 2 Stunden und 22 Minuten, um 05:00 UTC
Gültige Prognose vom 09 um 06 UTC bis 10 um 06 UTC
Wind 12 kt aus Nordwest
Sichtweite: 5000 m
trockener Dunst
Wahrscheinlichkeit 30% :
Zeitweise
vom 09 um 06 UTC bis 09 um 08 UTC
Sichtweite: 3000 m
Übergehend zu
vom 09 um 07 UTC bis 09 um 11 UTC
Sichtweite: 8000 m

TAF: DAUH 090500Z 0906/1006 32012KT 5000 HZ NSC PROB30 TEMPO 0906/0908 3000 BECMG 0907/0911 8000 NSW

Wetterbeobachtungen und Prognosen von mehr als 4000 Flughäfen (METAR und TAF Bericht).

Die verfügbaren Stationen werden durch gelbe und rote Markierungen auf der Karte dargestellt.

Führen Sie die Maus auf sie, um den Namen der Station zu sehen.

Darauf klicken, um die Beobachtung von Wetterbeobachtungen und Prognosen zu sehen.

Um die Karte zu ändern : klicken Sie auf den grünen Tasten mit einem schwarzen Kreuz Zum Vergrößern, auf den grünen Button mit einem Gedankenstrich zu verkleinern, oder auf die grünen Pfeile für benachbarte Karten.


METAR-TAF: